sensor_id;sensor_type;location;lat;lon;timestamp;temperature;humidity
40556;DHT22;26250;45.422;11.100;2022-11-20T10:02:03;11.90;90.00
40556;DHT22;26250;45.422;11.100;2022-11-20T10:04:36;11.90;91.80
40556;DHT22;26250;45.422;11.100;2022-11-20T10:07:16;11.90;93.80
40556;DHT22;26250;45.422;11.100;2022-11-20T10:10:01;12.00;90.60
40556;DHT22;26250;45.422;11.100;2022-11-20T10:15:38;12.10;95.40
40556;DHT22;26250;45.422;11.100;2022-11-20T10:26:12;12.20;90.80
40556;DHT22;26250;45.422;11.100;2022-11-20T10:31:44;12.30;93.10
40556;DHT22;26250;45.422;11.100;2022-11-20T10:37:10;12.40;90.00
40556;DHT22;26250;45.422;11.100;2022-11-20T10:39:50;12.50;89.30
40556;DHT22;26250;45.422;11.100;2022-11-20T10:42:37;12.50;89.20
40556;DHT22;26250;45.422;11.100;2022-11-20T10:50:37;12.70;89.80
40556;DHT22;26250;45.422;11.100;2022-11-20T10:53:46;12.70;89.80
40556;DHT22;26250;45.422;11.100;2022-11-20T11:00:07;12.70;90.00
40556;DHT22;26250;45.422;11.100;2022-11-20T11:03:07;12.90;90.00
40556;DHT22;26250;45.422;11.100;2022-11-20T11:05:39;12.80;89.60
40556;DHT22;26250;45.422;11.100;2022-11-20T11:08:14;12.80;90.00
40556;DHT22;26250;45.422;11.100;2022-11-20T11:10:54;12.90;90.20
40556;DHT22;26250;45.422;11.100;2022-11-20T11:13:31;12.80;90.50
40556;DHT22;26250;45.422;11.100;2022-11-20T11:15:58;12.90;90.80
40556;DHT22;26250;45.422;11.100;2022-11-20T11:18:27;12.90;90.70
40556;DHT22;26250;45.422;11.100;2022-11-20T11:20:55;13.00;90.50
40556;DHT22;26250;45.422;11.100;2022-11-20T11:23:36;13.00;90.40
40556;DHT22;26250;45.422;11.100;2022-11-20T11:26:26;13.10;89.90
40556;DHT22;26250;45.422;11.100;2022-11-20T11:29:02;13.20;90.10
40556;DHT22;26250;45.422;11.100;2022-11-20T11:31:32;13.20;90.40
40556;DHT22;26250;45.422;11.100;2022-11-20T11:34:13;13.20;90.60
40556;DHT22;26250;45.422;11.100;2022-11-20T11:36:40;13.20;90.40
40556;DHT22;26250;45.422;11.100;2022-11-20T11:39:18;13.30;89.90
40556;DHT22;26250;45.422;11.100;2022-11-20T11:41:47;13.20;89.60
40556;DHT22;26250;45.422;11.100;2022-11-20T11:47:00;13.30;90.10
40556;DHT22;26250;45.422;11.100;2022-11-20T11:49:29;13.30;89.40
40556;DHT22;26250;45.422;11.100;2022-11-20T11:52:18;13.40;90.10
40556;DHT22;26250;45.422;11.100;2022-11-20T11:55:07;13.40;90.40
40556;DHT22;26250;45.422;11.100;2022-11-20T11:57:54;13.40;90.10
40556;DHT22;26250;45.422;11.100;2022-11-20T12:00:22;13.40;90.10
40556;DHT22;26250;45.422;11.100;2022-11-20T12:03:05;13.40;90.10
40556;DHT22;26250;45.422;11.100;2022-11-20T12:05:41;13.40;90.10
40556;DHT22;26250;45.422;11.100;2022-11-20T12:08:37;13.50;90.80
40556;DHT22;26250;45.422;11.100;2022-11-20T12:11:23;13.50;91.00
40556;DHT22;26250;45.422;11.100;2022-11-20T12:13:55;13.50;91.00
40556;DHT22;26250;45.422;11.100;2022-11-20T12:16:24;13.50;90.90
40556;DHT22;26250;45.422;11.100;2022-11-20T12:18:52;13.50;91.30
40556;DHT22;26250;45.422;11.100;2022-11-20T12:37:48;13.70;92.00
40556;DHT22;26250;45.422;11.100;2022-11-20T12:40:47;13.70;92.10
40556;DHT22;26250;45.422;11.100;2022-11-20T12:43:21;13.70;92.10
40556;DHT22;26250;45.422;11.100;2022-11-20T12:46:22;13.80;92.30
40556;DHT22;26250;45.422;11.100;2022-11-20T12:54:40;13.80;92.10
40556;DHT22;26250;45.422;11.100;2022-11-20T12:57:29;13.70;92.10
40556;DHT22;26250;45.422;11.100;2022-11-20T13:00:14;13.80;92.00
40556;DHT22;26250;45.422;11.100;2022-11-20T13:08:24;13.70;92.10
40556;DHT22;26250;45.422;11.100;2022-11-20T13:11:01;13.70;92.20
40556;DHT22;26250;45.422;11.100;2022-11-20T13:19:15;13.70;92.00
40556;DHT22;26250;45.422;11.100;2022-11-20T13:21:48;13.80;91.90
40556;DHT22;26250;45.422;11.100;2022-11-20T13:29:44;13.80;91.10
40556;DHT22;26250;45.422;11.100;2022-11-20T13:32:16;13.80;91.10
40556;DHT22;26250;45.422;11.100;2022-11-20T13:35:13;13.80;91.10
40556;DHT22;26250;45.422;11.100;2022-11-20T13:38:00;13.80;91.00
40556;DHT22;26250;45.422;11.100;2022-11-20T13:40:27;13.80;91.00
40556;DHT22;26250;45.422;11.100;2022-11-20T13:45:27;13.80;90.90
40556;DHT22;26250;45.422;11.100;2022-11-20T13:47:56;13.80;90.80
40556;DHT22;26250;45.422;11.100;2022-11-20T14:08:42;13.70;90.70
40556;DHT22;26250;45.422;11.100;2022-11-20T14:11:28;13.70;90.40
40556;DHT22;26250;45.422;11.100;2022-11-20T14:14:16;13.70;90.50
40556;DHT22;26250;45.422;11.100;2022-11-20T19:06:43;9.80;98.20
40556;DHT22;26250;45.422;11.100;2022-11-20T19:09:11;9.40;98.80
40556;DHT22;26250;45.422;11.100;2022-11-20T19:11:39;9.40;98.50
40556;DHT22;26250;45.422;11.100;2022-11-20T19:14:06;9.40;98.30
40556;DHT22;26250;45.422;11.100;2022-11-20T19:16:33;9.30;98.30
40556;DHT22;26250;45.422;11.100;2022-11-20T19:19:02;9.30;98.40
40556;DHT22;26250;45.422;11.100;2022-11-20T19:21:30;9.30;99.00
40556;DHT22;26250;45.422;11.100;2022-11-20T19:23:58;9.30;99.10
40556;DHT22;26250;45.422;11.100;2022-11-20T19:26:25;9.30;99.10
40556;DHT22;26250;45.422;11.100;2022-11-20T19:28:53;9.30;99.20
40556;DHT22;26250;45.422;11.100;2022-11-20T19:31:21;9.40;98.90
40556;DHT22;26250;45.422;11.100;2022-11-20T19:33:55;9.30;98.90
40556;DHT22;26250;45.422;11.100;2022-11-20T19:36:25;9.30;98.80
40556;DHT22;26250;45.422;11.100;2022-11-20T19:38:53;9.30;98.80
40556;DHT22;26250;45.422;11.100;2022-11-20T19:41:23;9.40;98.40
40556;DHT22;26250;45.422;11.100;2022-11-20T19:44:05;9.30;98.80
40556;DHT22;26250;45.422;11.100;2022-11-20T19:46:34;9.20;98.90
40556;DHT22;26250;45.422;11.100;2022-11-20T19:49:01;9.10;99.10
40556;DHT22;26250;45.422;11.100;2022-11-20T19:51:31;9.20;98.40
40556;DHT22;26250;45.422;11.100;2022-11-20T19:53:59;9.30;98.30
40556;DHT22;26250;45.422;11.100;2022-11-20T19:56:27;9.30;98.20
40556;DHT22;26250;45.422;11.100;2022-11-20T19:58:58;9.30;98.40
40556;DHT22;26250;45.422;11.100;2022-11-20T20:01:28;9.20;98.60
40556;DHT22;26250;45.422;11.100;2022-11-20T20:03:57;9.20;98.30
40556;DHT22;26250;45.422;11.100;2022-11-20T20:06:27;9.30;97.80
40556;DHT22;26250;45.422;11.100;2022-11-20T20:09:08;9.30;97.90
40556;DHT22;26250;45.422;11.100;2022-11-20T20:11:35;9.30;97.40
40556;DHT22;26250;45.422;11.100;2022-11-20T20:14:04;9.20;97.10
40556;DHT22;26250;45.422;11.100;2022-11-20T20:16:31;9.10;97.70
40556;DHT22;26250;45.422;11.100;2022-11-20T20:18:59;9.00;98.00
40556;DHT22;26250;45.422;11.100;2022-11-20T20:21:28;8.90;99.10
40556;DHT22;26250;45.422;11.100;2022-11-20T20:23:57;8.90;99.10
40556;DHT22;26250;45.422;11.100;2022-11-20T20:26:25;9.00;99.10
40556;DHT22;26250;45.422;11.100;2022-11-20T20:28:55;9.00;98.80
40556;DHT22;26250;45.422;11.100;2022-11-20T20:31:24;8.90;98.50
40556;DHT22;26250;45.422;11.100;2022-11-20T20:33:51;8.80;98.50
40556;DHT22;26250;45.422;11.100;2022-11-20T20:36:20;8.80;98.20
40556;DHT22;26250;45.422;11.100;2022-11-20T20:38:51;8.70;98.60
40556;DHT22;26250;45.422;11.100;2022-11-20T20:41:19;8.80;98.40
40556;DHT22;26250;45.422;11.100;2022-11-20T20:43:47;8.70;98.90
40556;DHT22;26250;45.422;11.100;2022-11-20T20:46:32;8.60;99.30
40556;DHT22;26250;45.422;11.100;2022-11-20T20:49:00;8.60;99.20
40556;DHT22;26250;45.422;11.100;2022-11-20T20:51:27;8.70;99.20
40556;DHT22;26250;45.422;11.100;2022-11-20T20:53:54;8.70;99.00
40556;DHT22;26250;45.422;11.100;2022-11-20T20:56:21;8.70;99.10
40556;DHT22;26250;45.422;11.100;2022-11-20T20:58:48;8.70;99.10
40556;DHT22;26250;45.422;11.100;2022-11-20T21:01:16;8.70;99.10
40556;DHT22;26250;45.422;11.100;2022-11-20T21:03:44;8.80;97.70
40556;DHT22;26250;45.422;11.100;2022-11-20T21:06:11;8.80;97.40
40556;DHT22;26250;45.422;11.100;2022-11-20T21:08:39;8.80;97.60
40556;DHT22;26250;45.422;11.100;2022-11-20T21:11:11;8.80;98.30
40556;DHT22;26250;45.422;11.100;2022-11-20T21:13:40;8.70;98.90
40556;DHT22;26250;45.422;11.100;2022-11-20T21:16:09;8.70;99.20
40556;DHT22;26250;45.422;11.100;2022-11-20T21:18:36;8.60;99.40
40556;DHT22;26250;45.422;11.100;2022-11-20T21:21:04;8.60;99.10
40556;DHT22;26250;45.422;11.100;2022-11-20T21:23:50;8.70;98.80
40556;DHT22;26250;45.422;11.100;2022-11-20T21:26:19;8.60;98.90
40556;DHT22;26250;45.422;11.100;2022-11-20T21:28:46;8.60;99.20
40556;DHT22;26250;45.422;11.100;2022-11-20T21:31:18;8.60;99.40
40556;DHT22;26250;45.422;11.100;2022-11-20T21:33:49;8.50;99.30
40556;DHT22;26250;45.422;11.100;2022-11-20T21:36:18;8.50;99.30
40556;DHT22;26250;45.422;11.100;2022-11-20T21:38:45;8.50;98.90
40556;DHT22;26250;45.422;11.100;2022-11-20T21:41:14;8.60;98.50
40556;DHT22;26250;45.422;11.100;2022-11-20T21:43:41;8.70;98.00
40556;DHT22;26250;45.422;11.100;2022-11-20T21:46:13;8.70;98.00
40556;DHT22;26250;45.422;11.100;2022-11-20T21:48:45;8.70;98.10
40556;DHT22;26250;45.422;11.100;2022-11-20T21:51:23;8.70;98.00
40556;DHT22;26250;45.422;11.100;2022-11-20T21:53:52;8.50;97.90
40556;DHT22;26250;45.422;11.100;2022-11-20T21:56:24;8.30;98.30
40556;DHT22;26250;45.422;11.100;2022-11-20T21:58:52;8.30;98.40
40556;DHT22;26250;45.422;11.100;2022-11-20T22:01:26;8.40;98.30
40556;DHT22;26250;45.422;11.100;2022-11-20T22:03:59;8.30;98.40
40556;DHT22;26250;45.422;11.100;2022-11-20T22:06:30;8.40;98.10
40556;DHT22;26250;45.422;11.100;2022-11-20T22:09:01;8.50;98.00
40556;DHT22;26250;45.422;11.100;2022-11-20T22:11:28;8.40;99.10
40556;DHT22;26250;45.422;11.100;2022-11-20T22:13:58;8.40;99.50
